Time;durP1;ratioP1;P1;durP2;ratioP2;P2;SDS_P1;SDS_P2;PMS_P1;PMS_P2;Temp;Humidity;BMP_temperature;BMP_pressure;BME280_temperature;BME280_humidity;BME280_pressure;Samples;Min_cycle;Max_cycle;Signal;HPM_P1;HPM_P2
2021/04/03 00:00:29;;;;;;;6.75;3.30;;;7.00;99.90;;;;;;5073494;28;20489;-74
2021/04/03 00:02:56;;;;;;;10.60;4.00;;;6.90;99.90;;;;;;5073117;28;20111;-74
2021/04/03 00:05:24;;;;;;;8.65;3.20;;;6.90;99.90;;;;;;5073404;28;20052;-73
2021/04/03 00:07:51;;;;;;;6.40;3.10;;;7.00;99.90;;;;;;5072799;28;20048;-72
2021/04/03 00:10:21;;;;;;;11.25;3.97;;;7.00;99.90;;;;;;5073164;28;20032;-73
2021/04/03 00:12:47;;;;;;;9.93;3.60;;;7.00;99.90;;;;;;5073196;28;20620;-74
2021/04/03 00:15:13;;;;;;;8.93;3.47;;;7.10;99.80;;;;;;5073039;28;20067;-74
2021/04/03 00:17:39;;;;;;;8.20;3.08;;;7.10;99.70;;;;;;5073077;28;20044;-72
2021/04/03 00:20:11;;;;;;;15.60;4.50;;;7.10;99.70;;;;;;5073020;28;20242;-73
2021/04/03 00:22:36;;;;;;;;;;;7.10;99.80;;;;;;5073544;28;20362;-74
2021/04/03 00:25:04;;;;;;;8.38;3.85;;;7.10;99.90;;;;;;5072889;28;19918;-74
2021/04/03 00:27:30;;;;;;;12.52;4.90;;;7.10;99.90;;;;;;5072896;28;20509;-73
2021/04/03 00:29:56;;;;;;;8.90;3.38;;;7.20;99.80;;;;;;5072766;28;20036;-73
2021/04/03 00:32:23;;;;;;;7.15;3.58;;;7.20;99.90;;;;;;5072704;28;20024;-72
2021/04/03 00:34:49;;;;;;;8.93;4.40;;;7.20;99.80;;;;;;5072792;28;20048;-74
2021/04/03 00:37:15;;;;;;;5.50;3.35;;;7.30;99.90;;;;;;5072564;28;20055;-74
2021/04/03 00:39:42;;;;;;;8.23;3.80;;;7.30;99.70;;;;;;5072590;28;20420;-74
2021/04/03 00:42:17;;;;;;;7.90;3.05;;;7.40;99.60;;;;;;5072671;28;20036;-73
2021/04/03 00:44:47;;;;;;;10.27;3.10;;;7.30;99.60;;;;;;5072574;28;20061;-73
2021/04/03 00:47:15;;;;;;;9.75;2.95;;;7.30;99.50;;;;;;5072780;28;20476;-73
2021/04/03 00:49:45;;;;;;;6.32;3.22;;;7.40;99.30;;;;;;5072262;28;20037;-73
2021/04/03 00:52:13;;;;;;;8.27;3.05;;;7.30;99.50;;;;;;5072676;28;20036;-73
2021/04/03 00:54:43;;;;;;;7.13;2.85;;;7.30;99.30;;;;;;5072400;28;20077;-73
2021/04/03 00:57:09;;;;;;;9.30;2.78;;;7.40;98.80;;;;;;5072473;28;20036;-73
2021/04/03 00:59:36;;;;;;;11.63;2.95;;;7.30;98.80;;;;;;5071128;28;20041;-73
2021/04/03 01:02:04;;;;;;;10.48;3.22;;;7.30;98.60;;;;;;5071705;28;20393;-73
2021/04/03 01:04:30;;;;;;;6.75;2.75;;;7.30;98.60;;;;;;5072149;28;20470;-73
2021/04/03 01:06:56;;;;;;;10.00;3.00;;;7.20;99.40;;;;;;5072132;28;20072;-74
2021/04/03 01:09:21;;;;;;;7.13;2.30;;;7.20;98.70;;;;;;5072383;28;20037;-74
2021/04/03 01:12:05;;;;;;;5.78;2.05;;;7.30;98.60;;;;;;5072766;28;20037;-72
2021/04/03 01:14:51;;;;;;;6.65;2.13;;;7.20;98.50;;;;;;5086765;28;20028;-73
2021/04/03 01:17:43;;;;;;;5.13;2.03;;;7.20;98.40;;;;;;5072263;28;20050;-74
2021/04/03 01:20:49;;;;;;;14.70;2.83;;;7.20;98.30;;;;;;5072281;28;20149;-74
2021/04/03 01:23:52;;;;;;;4.88;1.80;;;7.20;98.20;;;;;;5072339;28;20035;-74
2021/04/03 01:27:33;;;;;;;11.35;3.83;;;7.20;98.10;;;;;;5072330;28;20492;-73
2021/04/03 01:30:08;;;;;;;4.72;1.92;;;7.20;98.30;;;;;;5069393;28;20032;-74
2021/04/03 01:32:54;;;;;;;10.13;2.00;;;7.10;98.70;;;;;;5069657;28;20067;-73
2021/04/03 01:35:48;;;;;;;3.53;1.73;;;7.10;98.60;;;;;;5069540;28;20497;-74
2021/04/03 01:38:36;;;;;;;9.93;1.88;;;7.20;98.30;;;;;;5052987;28;20045;-73
2021/04/03 01:41:03;;;;;;;4.70;1.77;;;7.20;98.20;;;;;;5052503;28;20123;-73
2021/04/03 01:43:40;;;;;;;7.05;1.63;;;7.10;98.40;;;;;;5052838;28;20396;-74
2021/04/03 01:46:07;;;;;;;7.32;1.50;;;7.20;98.10;;;;;;5053167;28;20064;-73
2021/04/03 01:48:35;;;;;;;5.90;2.00;;;7.20;98.30;;;;;;5052768;28;20037;-74
2021/04/03 01:51:03;;;;;;;2.55;1.50;;;7.20;98.40;;;;;;5052746;28;20405;-73
2021/04/03 01:53:29;;;;;;;2.45;1.23;;;7.20;98.10;;;;;;5069292;28;20040;-74
2021/04/03 01:55:56;;;;;;;2.45;1.27;;;7.20;98.00;;;;;;5052654;28;20075;-74
2021/04/03 01:58:23;;;;;;;6.28;1.27;;;7.20;98.10;;;;;;5052746;28;20098;-74
2021/04/03 02:00:50;;;;;;;2.47;1.80;;;7.10;98.30;;;;;;5070833;28;20072;-74
2021/04/03 02:03:16;;;;;;;6.70;2.15;;;7.10;98.40;;;;;;5087392;28;20132;-73
2021/04/03 02:05:45;;;;;;;6.65;2.10;;;7.20;98.20;;;;;;5070392;28;20120;-73
2021/04/03 02:08:13;;;;;;;3.75;1.30;;;7.20;98.20;;;;;;5086451;28;20547;-73
2021/04/03 02:10:39;;;;;;;6.45;2.22;;;7.10;98.10;;;;;;5071882;28;20473;-74
2021/04/03 02:13:06;;;;;;;3.78;1.30;;;7.10;98.40;;;;;;5072153;28;20020;-74
2021/04/03 02:15:32;;;;;;;2.92;1.40;;;7.20;98.10;;;;;;5075559;28;20041;-73
2021/04/03 02:18:03;;;;;;;6.45;1.58;;;7.10;98.20;;;;;;5090637;28;20047;-74
2021/04/03 02:20:29;;;;;;;4.07;1.38;;;7.10;98.40;;;;;;5090743;28;20086;-73
2021/04/03 02:22:55;;;;;;;5.03;1.52;;;7.20;98.10;;;;;;5075326;28;20032;-73
2021/04/03 02:25:21;;;;;;;5.10;1.67;;;7.20;98.30;;;;;;5091130;28;20025;-73
2021/04/03 02:27:46;;;;;;;6.38;2.55;;;7.30;98.10;;;;;;5075260;28;20025;-73
2021/04/03 02:30:19;;;;;;;5.93;2.50;;;7.30;99.40;;;;;;5074870;28;20029;-73
2021/04/03 02:32:48;;;;;;;5.40;2.30;;;7.10;99.90;;;;;;5090652;28;20405;-74
2021/04/03 02:35:19;;;;;;;6.22;2.40;;;6.90;99.90;;;;;;5075048;28;20040;-74
2021/04/03 02:37:48;;;;;;;7.57;3.17;;;6.90;99.90;;;;;;5075065;28;20032;-73
2021/04/03 02:40:20;;;;;;;6.55;2.75;;;6.70;99.90;;;;;;5074782;28;20476;-74
2021/04/03 02:43:28;;;;;;;7.20;2.72;;;6.60;99.90;;;;;;5073624;28;20090;-73
2021/04/03 02:46:14;;;;;;;8.05;2.40;;;6.70;99.90;;;;;;5073688;28;20044;-73
2021/04/03 02:48:48;;;;;;;7.55;3.20;;;6.70;99.90;;;;;;5090128;28;20028;-74
2021/04/03 02:51:20;;;;;;;10.05;2.65;;;6.50;99.90;;;;;;5089971;28;20534;-73
2021/04/03 02:53:47;;;;;;;5.22;1.98;;;6.70;99.90;;;;;;5089995;28;20113;-73
2021/04/03 02:56:14;;;;;;;3.67;1.30;;;6.80;99.90;;;;;;5074701;28;20473;-73
2021/04/03 02:58:41;;;;;;;4.25;1.60;;;6.90;99.90;;;;;;5073557;28;20119;-73
2021/04/03 03:01:12;;;;;;;10.65;1.75;;;7.10;99.90;;;;;;5090114;28;20029;-73
2021/04/03 03:03:38;;;;;;;8.93;2.58;;;7.10;99.60;;;;;;5090073;28;20489;-73
2021/04/03 03:06:05;;;;;;;8.95;1.65;;;7.10;99.50;;;;;;5074464;28;20044;-73
2021/04/03 03:08:33;;;;;;;11.90;2.22;;;7.10;99.50;;;;;;5073991;28;20082;-73
2021/04/03 03:11:01;;;;;;;4.38;1.52;;;7.10;99.60;;;;;;5089835;28;20114;-73
2021/04/03 03:13:31;;;;;;;8.82;2.00;;;7.00;99.70;;;;;;5089618;28;20036;-74
2021/04/03 03:16:03;;;;;;;4.90;1.80;;;7.10;99.80;;;;;;5089692;28;20029;-74
2021/04/03 03:18:29;;;;;;;7.88;2.05;;;7.10;99.70;;;;;;5089219;28;20386;-73
2021/04/03 03:20:56;;;;;;;5.30;2.25;;;7.00;99.90;;;;;;5074085;28;20040;-73
2021/04/03 03:23:23;;;;;;;4.97;1.98;;;7.00;99.90;;;;;;5072675;28;20033;-73
2021/04/03 03:25:48;;;;;;;6.03;1.80;;;7.00;99.90;;;;;;5089484;28;20062;-74
2021/04/03 03:28:15;;;;;;;5.78;2.00;;;7.00;99.90;;;;;;5073876;28;20052;-73
2021/04/03 03:30:41;;;;;;;5.90;2.17;;;7.00;99.90;;;;;;5089776;28;20035;-73
2021/04/03 03:33:06;;;;;;;4.03;1.70;;;7.10;99.90;;;;;;5073933;28;20024;-73
2021/04/03 03:35:32;;;;;;;5.32;2.15;;;7.00;99.90;;;;;;5072717;28;20381;-73
2021/04/03 03:37:59;;;;;;;5.32;2.08;;;7.00;99.90;;;;;;5089486;28;20027;-73
2021/04/03 03:40:26;;;;;;;8.27;2.10;;;7.10;99.90;;;;;;5072708;28;20032;-74
2021/04/03 03:42:53;;;;;;;6.82;2.22;;;7.20;99.90;;;;;;5089139;28;20028;-73
2021/04/03 03:45:20;;;;;;;6.85;2.20;;;7.10;99.90;;;;;;5088990;28;20024;-73
2021/04/03 03:47:46;;;;;;;6.22;1.80;;;7.20;99.90;;;;;;5089303;28;20078;-74
2021/04/03 03:50:12;;;;;;;4.07;2.15;;;7.20;99.90;;;;;;5073595;28;20025;-73
2021/04/03 03:52:38;;;;;;;6.90;2.17;;;7.20;99.90;;;;;;5089134;28;20048;-72
2021/04/03 03:55:05;;;;;;;4.97;2.42;;;7.30;99.90;;;;;;5073212;28;20028;-73
2021/04/03 03:57:31;;;;;;;7.65;2.28;;;7.10;99.90;;;;;;5073252;28;20028;-73
2021/04/03 03:59:57;;;;;;;7.60;2.17;;;7.10;99.90;;;;;;5089198;28;20115;-74
2021/04/03 04:02:23;;;;;;;3.78;2.03;;;7.10;99.90;;;;;;5073286;28;20032;-72
2021/04/03 04:04:48;;;;;;;6.47;2.63;;;7.10;99.90;;;;;;5073473;28;20032;-73
2021/04/03 04:07:14;;;;;;;5.10;2.30;;;7.00;99.90;;;;;;5072931;28;20043;-73
2021/04/03 04:09:41;;;;;;;5.70;2.45;;;7.10;99.90;;;;;;5072816;28;20043;-73
2021/04/03 04:12:08;;;;;;;8.57;2.30;;;7.10;99.90;;;;;;5073196;28;20033;-73
2021/04/03 04:14:35;;;;;;;5.75;2.60;;;7.10;99.90;;;;;;5088901;28;20044;-73
2021/04/03 04:17:03;;;;;;;8.05;2.45;;;7.00;99.90;;;;;;5088371;28;20054;-73
2021/04/03 04:19:30;;;;;;;5.50;2.78;;;7.10;99.90;;;;;;5072940;28;20035;-73
2021/04/03 04:21:56;;;;;;;5.95;2.83;;;7.10;99.90;;;;;;5071569;28;20083;-73
2021/04/03 04:24:22;;;;;;;10.77;3.00;;;7.10;99.90;;;;;;5072964;28;20187;-73
2021/04/03 04:26:48;;;;;;;6.95;2.25;;;7.00;99.90;;;;;;5088743;28;20028;-72
2021/04/03 04:29:14;;;;;;;4.40;2.15;;;7.00;99.90;;;;;;5072415;28;20032;-73
2021/04/03 04:31:40;;;;;;;9.75;2.78;;;7.00;99.90;;;;;;5088647;28;20032;-73
2021/04/03 04:34:06;;;;;;;10.13;2.45;;;6.90;99.90;;;;;;5072414;28;20151;-73
2021/04/03 04:36:32;;;;;;;6.38;2.95;;;6.90;99.90;;;;;;5072212;28;20121;-73
2021/04/03 04:38:58;;;;;;;6.13;2.58;;;6.80;99.90;;;;;;5072761;28;20456;-73
2021/04/03 04:41:24;;;;;;;6.50;2.97;;;6.70;99.90;;;;;;5072508;28;20111;-73
2021/04/03 04:43:49;;;;;;;9.90;3.22;;;6.70;99.90;;;;;;5072423;28;20119;-73
2021/04/03 04:46:15;;;;;;;6.38;3.42;;;6.60;99.90;;;;;;5071115;28;20031;-74
2021/04/03 04:48:41;;;;;;;5.18;2.85;;;6.50;99.90;;;;;;5072336;28;20048;-74
2021/04/03 04:51:07;;;;;;;10.60;3.80;;;6.40;99.90;;;;;;5072250;28;20037;-74
2021/04/03 04:53:33;;;;;;;9.23;3.17;;;6.40;99.90;;;;;;5088245;28;20040;-74
2021/04/03 04:55:59;;;;;;;7.93;2.63;;;6.50;99.90;;;;;;5071199;28;20028;-74
2021/04/03 04:58:25;;;;;;;8.70;2.85;;;6.50;99.90;;;;;;5072393;28;20461;-74
2021/04/03 05:00:50;;;;;;;12.60;3.45;;;6.40;99.90;;;;;;5088195;28;20090;-73
2021/04/03 05:03:16;;;;;;;6.90;3.03;;;6.40;99.90;;;;;;5072156;28;20431;-74
2021/04/03 05:05:42;;;;;;;13.25;3.60;;;6.30;99.90;;;;;;5088204;28;20058;-74
2021/04/03 05:08:08;;;;;;;10.95;2.80;;;6.20;99.90;;;;;;5071887;28;20057;-74
2021/04/03 05:10:34;;;;;;;6.93;2.72;;;6.20;99.90;;;;;;5072422;28;20039;-75
2021/04/03 05:13:02;;;;;;;7.53;3.05;;;6.20;99.90;;;;;;5070924;28;20039;-74
2021/04/03 05:15:28;;;;;;;6.40;2.60;;;6.20;99.90;;;;;;5087858;28;20047;-73
2021/04/03 05:17:53;;;;;;;11.75;3.10;;;6.20;99.90;;;;;;5071881;28;20024;-74
2021/04/03 05:20:19;;;;;;;5.32;2.80;;;6.20;99.90;;;;;;5071958;28;20064;-73
2021/04/03 05:22:45;;;;;;;11.05;3.35;;;6.20;99.90;;;;;;5070831;28;20024;-73
2021/04/03 05:25:14;;;;;;;6.55;3.10;;;6.10;99.90;;;;;;5070884;28;20036;-73
2021/04/03 05:27:41;;;;;;;7.05;3.22;;;6.10;99.90;;;;;;5071998;28;20039;-73
2021/04/03 05:30:09;;;;;;;8.50;3.35;;;6.00;99.90;;;;;;5072169;28;20116;-74
2021/04/03 05:32:35;;;;;;;10.85;3.92;;;6.00;99.90;;;;;;5072218;28;20094;-74
2021/04/03 05:35:03;;;;;;;8.45;3.75;;;6.00;99.90;;;;;;5070756;28;20039;-74
2021/04/03 05:37:28;;;;;;;12.40;3.47;;;6.00;99.90;;;;;;5072096;28;20025;-76
2021/04/03 05:39:54;;;;;;;11.52;5.05;;;6.00;99.90;;;;;;5072118;28;20043;-74
2021/04/03 05:42:20;;;;;;;11.73;3.83;;;6.00;99.90;;;;;;5071873;28;20377;-74
2021/04/03 05:44:48;;;;;;;14.75;5.70;;;6.00;99.90;;;;;;5071911;28;20488;-74
2021/04/03 05:47:15;;;;;;;12.05;3.80;;;6.00;99.90;;;;;;5072282;28;20574;-75
2021/04/03 05:49:41;;;;;;;8.52;3.20;;;6.20;99.90;;;;;;5075687;28;20386;-74
2021/04/03 05:52:08;;;;;;;9.00;3.75;;;6.30;99.90;;;;;;5075959;28;20039;-74
2021/04/03 05:54:39;;;;;;;7.72;3.50;;;6.30;99.90;;;;;;5076080;28;20032;-74
2021/04/03 05:57:06;;;;;;;10.27;3.72;;;6.20;99.90;;;;;;5075787;28;20044;-75
2021/04/03 05:59:36;;;;;;;13.23;4.80;;;6.20;99.90;;;;;;5075721;28;20058;-73
2021/04/03 06:02:05;;;;;;;14.85;3.88;;;6.20;99.90;;;;;;5074350;28;20120;-74
2021/04/03 06:04:31;;;;;;;12.77;3.47;;;6.30;99.90;;;;;;5091201;28;20029;-73
2021/04/03 06:06:57;;;;;;;11.88;3.90;;;6.30;99.90;;;;;;5075218;28;20408;-74
2021/04/03 06:09:23;;;;;;;12.00;5.25;;;6.30;99.90;;;;;;5075457;28;20032;-74
2021/04/03 06:11:50;;;;;;;11.80;4.57;;;6.30;99.90;;;;;;5075631;28;20024;-74
2021/04/03 06:14:19;;;;;;;7.95;4.07;;;6.40;99.90;;;;;;5075180;28;20025;-74
2021/04/03 06:16:52;;;;;;;7.90;3.92;;;6.50;99.90;;;;;;5091082;28;20077;-74
2021/04/03 06:19:26;;;;;;;9.38;3.85;;;6.50;99.90;;;;;;5075345;28;20028;-74
2021/04/03 06:21:57;;;;;;;15.77;3.55;;;6.40;99.90;;;;;;5075501;28;20029;-73
2021/04/03 06:24:37;;;;;;;8.73;4.20;;;6.40;99.90;;;;;;5090725;28;20036;-73
2021/04/03 06:27:04;;;;;;;11.32;3.75;;;6.50;99.90;;;;;;5090699;28;20049;-74
2021/04/03 06:29:48;;;;;;;9.27;4.28;;;6.50;99.90;;;;;;5074774;28;20033;-74
2021/04/03 06:32:18;;;;;;;10.13;3.65;;;6.50;99.90;;;;;;5075010;28;20098;-74
2021/04/03 06:34:49;;;;;;;7.20;3.60;;;6.60;99.90;;;;;;5074927;28;20039;-74
2021/04/03 06:37:27;;;;;;;;;;;6.60;99.90;;;;;;5074058;28;20040;-75
2021/04/03 06:39:59;;;;;;;11.07;3.70;;;6.60;99.90;;;;;;5074873;28;19912;-73
2021/04/03 06:42:45;;;;;;;10.68;3.58;;;6.70;99.90;;;;;;5089757;28;20053;-74
2021/04/03 06:45:35;;;;;;;7.00;3.20;;;6.70;99.90;;;;;;5074899;28;20025;-74
2021/04/03 06:48:08;;;;;;;9.48;3.17;;;6.80;99.90;;;;;;5074027;28;20048;-74
2021/04/03 06:50:44;;;;;;;10.48;2.55;;;6.80;99.90;;;;;;5073506;28;20074;-74
2021/04/03 06:53:18;;;;;;;10.70;2.92;;;6.70;99.90;;;;;;5074892;28;20067;-73
2021/04/03 06:55:47;;;;;;;6.82;3.05;;;6.80;99.90;;;;;;5074811;28;20060;-74
2021/04/03 06:58:14;;;;;;;8.48;2.58;;;6.90;99.90;;;;;;5073152;28;20029;-74
2021/04/03 07:00:40;;;;;;;9.27;2.67;;;7.10;99.90;;;;;;5074020;28;20185;-74
2021/04/03 07:03:23;;;;;;;8.93;3.63;;;7.10;99.90;;;;;;5074687;28;20040;-73
2021/04/03 07:05:50;;;;;;;6.53;2.92;;;7.10;99.90;;;;;;5090243;28;20028;-73
2021/04/03 07:08:17;;;;;;;9.93;3.03;;;7.20;99.90;;;;;;5073887;28;20055;-73
2021/04/03 07:10:44;;;;;;;5.93;2.95;;;7.20;99.90;;;;;;5074259;28;20044;-73
2021/04/03 07:13:11;;;;;;;11.38;4.90;;;7.30;99.90;;;;;;5074500;28;20029;-74
2021/04/03 07:15:37;;;;;;;6.07;2.53;;;7.30;99.90;;;;;;5074235;28;20119;-74
2021/04/03 07:18:07;;;;;;;5.30;2.42;;;7.20;99.90;;;;;;5074000;28;20070;-74
2021/04/03 07:20:36;;;;;;;5.60;2.17;;;7.40;99.90;;;;;;5074346;28;20441;-73
2021/04/03 07:23:10;;;;;;;10.57;2.47;;;7.60;99.90;;;;;;5089653;28;20282;-71
2021/04/03 07:25:39;;;;;;;4.57;2.20;;;7.60;99.90;;;;;;5089413;28;20049;-73
2021/04/03 07:28:06;;;;;;;9.98;2.88;;;7.70;99.90;;;;;;5089741;28;20028;-74
2021/04/03 07:30:35;;;;;;;9.00;2.45;;;7.50;99.90;;;;;;5074061;28;20044;-73
2021/04/03 07:33:34;;;;;;;4.63;1.90;;;7.50;99.90;;;;;;5074136;28;20124;-73
2021/04/03 07:36:08;;;;;;;5.63;2.03;;;7.50;99.90;;;;;;5061305;28;20497;-74
2021/04/03 07:38:37;;;;;;;3.85;1.90;;;7.50;99.90;;;;;;5088650;28;20442;-74
2021/04/03 07:41:17;;;;;;;7.25;1.77;;;7.60;99.70;;;;;;5073979;28;20024;-74
2021/04/03 07:43:48;;;;;;;5.20;2.33;;;7.70;99.20;;;;;;5073897;28;20424;-73
2021/04/03 07:46:20;;;;;;;8.10;3.22;;;7.80;98.70;;;;;;5073902;28;20448;-73
2021/04/03 07:48:57;;;;;;;14.90;5.47;;;7.60;98.60;;;;;;5073704;28;20413;-72
2021/04/03 07:51:23;;;;;;;10.50;2.05;;;7.70;98.60;;;;;;5073539;28;20039;-73
2021/04/03 07:53:52;;;;;;;3.80;1.90;;;7.50;99.00;;;;;;5073376;28;20028;-74
2021/04/03 07:56:25;;;;;;;5.13;1.60;;;7.60;99.10;;;;;;5073555;28;20028;-73
2021/04/03 07:58:58;;;;;;;4.63;1.83;;;7.90;98.60;;;;;;5089139;28;20035;-72
2021/04/03 08:01:27;;;;;;;5.50;2.00;;;8.10;97.90;;;;;;5073173;28;20032;-73
2021/04/03 08:03:58;;;;;;;6.45;2.10;;;8.10;97.30;;;;;;5073089;28;20021;-73
2021/04/03 08:06:34;;;;;;;;;;;8.10;97.10;;;;;;5089077;28;20044;-73
2021/04/03 08:09:09;;;;;;;6.70;1.65;;;8.10;95.90;;;;;;5073418;28;19920;-72
2021/04/03 08:11:35;;;;;;;5.95;2.42;;;8.00;96.00;;;;;;5072104;28;20044;-74
2021/04/03 08:14:03;;;;;;;4.18;1.88;;;8.10;96.40;;;;;;5072066;28;20033;-72
2021/04/03 08:16:32;;;;;;;7.32;2.38;;;8.10;96.40;;;;;;5071759;28;20111;-72
2021/04/03 08:19:00;;;;;;;8.43;3.08;;;8.20;96.60;;;;;;5073174;28;20432;-72
2021/04/03 08:21:39;;;;;;;5.57;2.03;;;8.40;96.80;;;;;;5088707;28;20024;-72
2021/04/03 08:24:06;;;;;;;5.28;2.25;;;8.70;96.20;;;;;;5088668;28;20029;-73
2021/04/03 08:26:42;;;;;;;7.50;2.33;;;8.80;95.10;;;;;;5055018;28;20028;-72
2021/04/03 08:29:30;;;;;;;9.00;2.00;;;8.80;94.70;;;;;;5088238;28;20111;-72
2021/04/03 08:31:58;;;;;;;5.45;1.30;;;8.70;94.80;;;;;;5072619;28;20029;-73
2021/04/03 08:34:25;;;;;;;10.25;2.00;;;8.90;94.50;;;;;;5072764;28;20050;-74
2021/04/03 08:36:53;;;;;;;10.25;3.03;;;9.00;94.10;;;;;;5072545;28;20532;-73
2021/04/03 08:39:22;;;;;;;3.80;1.60;;;9.00;93.90;;;;;;5072785;28;20055;-74
2021/04/03 08:41:53;;;;;;;10.63;3.67;;;8.90;93.50;;;;;;5072812;28;20465;-73
2021/04/03 08:44:26;;;;;;;15.88;4.70;;;8.60;93.70;;;;;;5088164;28;20107;-74
2021/04/03 08:47:03;;;;;;;7.05;2.70;;;8.50;96.50;;;;;;5072716;28;20107;-74
2021/04/03 08:49:38;;;;;;;10.02;2.20;;;8.30;94.80;;;;;;5086934;28;20054;-73
2021/04/03 08:52:10;;;;;;;8.77;2.00;;;8.30;95.50;;;;;;5071049;28;20035;-74
2021/04/03 08:54:41;;;;;;;8.70;2.38;;;8.50;94.70;;;;;;5071298;28;20040;-74
2021/04/03 08:57:29;;;;;;;5.88;1.88;;;8.70;94.90;;;;;;5087408;28;20021;-74
2021/04/03 08:59:59;;;;;;;5.55;1.85;;;9.10;94.40;;;;;;5071993;28;20043;-73
2021/04/03 09:02:25;;;;;;;6.90;2.10;;;9.20;92.90;;;;;;5087919;28;20029;-74
2021/04/03 09:04:52;;;;;;;7.65;2.00;;;9.10;93.30;;;;;;5088024;28;20067;-74
2021/04/03 09:07:35;;;;;;;13.95;1.92;;;9.30;93.10;;;;;;5087704;28;20438;-73
2021/04/03 09:10:15;;;;;;;5.68;2.10;;;9.60;92.60;;;;;;5070817;28;20032;-72
2021/04/03 09:12:43;;;;;;;8.27;1.92;;;9.60;91.70;;;;;;5072312;28;20123;-73
2021/04/03 09:15:11;;;;;;;6.88;2.15;;;9.50;91.10;;;;;;5072313;28;20028;-74
2021/04/03 09:17:56;;;;;;;4.60;1.77;;;9.20;92.10;;;;;;5072015;28;20028;-74
2021/04/03 09:20:29;;;;;;;8.68;2.08;;;9.40;92.20;;;;;;5071895;28;20508;-74
2021/04/03 09:23:04;;;;;;;6.18;1.80;;;9.70;91.30;;;;;;5071922;28;20111;-72
2021/04/03 09:25:31;;;;;;;7.90;2.38;;;9.70;91.00;;;;;;5072353;28;20035;-73
2021/04/03 09:28:10;;;;;;;6.68;2.17;;;10.00;90.10;;;;;;5072147;28;20107;-73
2021/04/03 09:30:46;;;;;;;8.88;2.55;;;10.00;89.80;;;;;;5071874;28;20036;-74
2021/04/03 09:33:18;;;;;;;6.85;1.80;;;10.20;89.40;;;;;;5072131;28;20033;-73
2021/04/03 09:35:46;;;;;;;6.55;1.67;;;10.40;87.70;;;;;;5087202;28;20033;-73
2021/04/03 09:38:12;;;;;;;3.88;1.40;;;10.30;86.10;;;;;;5071931;28;20113;-74
2021/04/03 09:40:42;;;;;;;6.15;1.38;;;10.30;85.90;;;;;;5087299;28;20032;-74
2021/04/03 09:43:09;;;;;;;7.22;1.95;;;10.20;86.10;;;;;;5071881;28;20036;-73
2021/04/03 09:45:37;;;;;;;7.80;1.55;;;10.10;87.40;;;;;;5071845;28;20025;-72
2021/04/03 09:48:08;;;;;;;4.32;1.27;;;10.30;87.60;;;;;;5070236;28;20036;-73
2021/04/03 09:50:35;;;;;;;4.78;1.52;;;10.40;87.40;;;;;;5070391;28;20036;-73
2021/04/03 09:53:12;;;;;;;9.85;2.38;;;10.60;86.20;;;;;;5087649;28;20036;-73
2021/04/03 09:55:39;;;;;;;7.50;1.63;;;10.80;87.00;;;;;;5087046;28;20515;-72
2021/04/03 09:58:05;;;;;;;4.53;1.80;;;11.20;83.70;;;;;;5071823;28;20040;-72
2021/04/03 10:00:32;;;;;;;3.72;1.50;;;11.50;81.90;;;;;;5087422;28;20032;-71
2021/04/03 10:02:59;;;;;;;4.20;1.60;;;11.20;81.70;;;;;;5087491;28;20497;-72
2021/04/03 10:05:25;;;;;;;5.80;1.75;;;11.10;83.00;;;;;;5087420;28;20119;-72
2021/04/03 10:07:51;;;;;;;6.90;2.53;;;11.50;81.40;;;;;;5086979;28;20120;-72
2021/04/03 10:10:17;;;;;;;6.20;1.80;;;11.60;84.20;;;;;;5071803;28;20035;-71
2021/04/03 10:12:42;;;;;;;9.73;1.88;;;11.70;81.60;;;;;;5087374;28;20059;-73
2021/04/03 10:15:09;;;;;;;7.32;1.30;;;11.90;78.70;;;;;;5071824;28;20086;-72
2021/04/03 10:17:36;;;;;;;6.28;1.20;;;12.20;78.70;;;;;;5071314;28;20036;-72
2021/04/03 10:20:05;;;;;;;7.57;1.60;;;12.20;77.40;;;;;;5071621;28;20078;-73
2021/04/03 10:22:30;;;;;;;5.00;1.63;;;12.10;77.50;;;;;;5071231;28;20422;-73
2021/04/03 10:24:56;;;;;;;9.50;2.17;;;12.00;77.00;;;;;;5071681;28;20060;-72
2021/04/03 10:27:22;;;;;;;7.22;1.52;;;12.10;76.60;;;;;;5087324;28;20036;-72
2021/04/03 10:29:47;;;;;;;8.45;1.63;;;12.30;75.70;;;;;;5071387;28;20085;-72
2021/04/03 10:32:13;;;;;;;8.45;1.55;;;11.80;76.40;;;;;;5071200;28;20025;-73
2021/04/03 10:34:39;;;;;;;3.33;1.35;;;12.30;76.30;;;;;;5071432;28;20492;-72
2021/04/03 10:37:05;;;;;;;5.43;1.55;;;12.40;74.60;;;;;;5075094;28;20064;-73
2021/04/03 10:39:31;;;;;;;10.18;1.65;;;12.30;74.90;;;;;;5074901;28;20085;-72
2021/04/03 10:41:57;;;;;;;7.43;1.77;;;12.40;74.10;;;;;;5090678;28;20143;-72
2021/04/03 10:44:22;;;;;;;8.90;1.90;;;12.20;76.00;;;;;;5075075;28;20362;-73
2021/04/03 10:46:48;;;;;;;6.35;2.00;;;12.80;73.40;;;;;;5074861;28;20021;-74
2021/04/03 10:49:14;;;;;;;6.35;1.40;;;12.70;73.70;;;;;;5074783;28;20394;-73
2021/04/03 10:51:39;;;;;;;6.85;1.75;;;12.80;72.20;;;;;;5074806;28;20024;-72
2021/04/03 10:54:07;;;;;;;10.55;1.67;;;12.90;71.30;;;;;;5090389;28;20487;-73
2021/04/03 10:56:33;;;;;;;7.20;1.67;;;13.50;70.50;;;;;;5074443;28;20033;-73
2021/04/03 10:58:59;;;;;;;5.45;1.45;;;13.80;69.40;;;;;;5074388;28;20032;-72
2021/04/03 11:01:24;;;;;;;6.10;1.63;;;13.70;67.60;;;;;;5074546;28;20092;-73
2021/04/03 11:03:50;;;;;;;4.00;1.27;;;13.60;68.00;;;;;;5074132;28;20056;-72
2021/04/03 11:06:16;;;;;;;4.05;1.27;;;12.90;70.30;;;;;;5090109;28;20555;-73
2021/04/03 11:08:41;;;;;;;10.05;1.20;;;13.30;65.20;;;;;;5073726;28;20076;-72
2021/04/03 11:11:09;;;;;;;5.43;1.38;;;13.40;63.40;;;;;;5074462;28;20119;-74
2021/04/03 11:13:34;;;;;;;4.53;1.20;;;12.70;63.80;;;;;;5074039;28;20458;-72
2021/04/03 11:16:01;;;;;;;1.90;0.80;;;12.60;63.20;;;;;;5073869;28;20124;-73
2021/04/03 11:18:26;;;;;;;4.07;1.02;;;12.80;63.80;;;;;;5074195;28;20033;-72
2021/04/03 11:20:52;;;;;;;34.92;15.40;;;13.30;63.80;;;;;;5074278;28;20116;-72
2021/04/03 11:23:18;;;;;;;10.00;4.63;;;13.50;64.90;;;;;;5089798;28;20041;-73
2021/04/03 11:25:45;;;;;;;3.45;1.58;;;14.10;61.90;;;;;;5074095;28;20039;-72
2021/04/03 11:28:11;;;;;;;7.00;1.65;;;14.50;60.10;;;;;;5089460;28;20029;-72
2021/04/03 11:30:37;;;;;;;4.03;1.00;;;14.60;57.90;;;;;;5073817;28;20546;-71
2021/04/03 11:33:02;;;;;;;3.05;1.23;;;14.90;57.30;;;;;;5074144;28;20047;-71
2021/04/03 11:35:29;;;;;;;5.97;1.27;;;15.00;57.80;;;;;;5073797;28;20051;-72
2021/04/03 11:37:55;;;;;;;4.55;1.20;;;14.40;59.30;;;;;;5088825;28;20039;-71
2021/04/03 11:40:21;;;;;;;8.18;1.33;;;14.70;59.40;;;;;;5073805;28;20032;-72
2021/04/03 11:42:52;;;;;;;2.83;0.90;;;15.00;58.30;;;;;;5073696;28;20388;-73
2021/04/03 11:45:20;;;;;;;2.28;0.90;;;15.40;56.50;;;;;;5073669;28;20036;-71
2021/04/03 11:47:46;;;;;;;5.65;1.23;;;14.70;56.00;;;;;;5073629;28;20078;-73
2021/04/03 11:50:13;;;;;;;4.13;1.27;;;14.90;57.80;;;;;;5071984;28;20086;-72
2021/04/03 11:52:38;;;;;;;5.97;1.50;;;14.40;56.80;;;;;;5072027;28;20052;-71
2021/04/03 11:55:07;;;;;;;3.35;1.15;;;15.00;56.90;;;;;;5072020;28;20477;-72
2021/04/03 11:57:33;;;;;;;5.25;1.33;;;14.90;56.40;;;;;;5073067;28;20032;-72
2021/04/03 11:59:59;;;;;;;3.22;1.20;;;14.90;58.20;;;;;;5073487;28;20024;-73
2021/04/03 12:02:25;;;;;;;5.20;1.17;;;14.70;56.60;;;;;;5073195;28;20107;-70
2021/04/03 12:04:51;;;;;;;5.00;1.00;;;15.10;56.90;;;;;;5072931;28;20024;-72
2021/04/03 12:07:17;;;;;;;3.65;1.05;;;15.90;53.00;;;;;;5072968;28;20040;-73
2021/04/03 12:09:43;;;;;;;6.80;1.00;;;16.20;51.80;;;;;;5072903;28;20106;-71
2021/04/03 12:12:09;;;;;;;4.97;0.95;;;15.40;52.30;;;;;;5073317;28;20033;-73
2021/04/03 12:14:35;;;;;;;3.28;0.85;;;15.40;55.50;;;;;;5072716;28;20520;-71
2021/04/03 12:17:01;;;;;;;6.93;1.25;;;14.50;57.90;;;;;;5088660;28;20063;-72
2021/04/03 12:19:27;;;;;;;5.22;1.10;;;15.40;53.10;;;;;;5073129;28;20102;-72
2021/04/03 12:21:53;;;;;;;6.53;1.15;;;16.20;53.70;;;;;;5088375;28;20028;-72
2021/04/03 12:24:19;;;;;;;9.23;2.97;;;15.40;53.20;;;;;;5072628;28;20108;-71
2021/04/03 12:26:45;;;;;;;4.07;0.70;;;16.90;51.10;;;;;;5072712;28;20175;-71
2021/04/03 12:29:10;;;;;;;2.33;0.95;;;16.30;53.80;;;;;;5072566;28;20055;-71
2021/04/03 12:31:36;;;;;;;3.60;1.23;;;16.70;52.10;;;;;;5072753;28;20112;-71
2021/04/03 12:34:02;;;;;;;3.67;1.13;;;17.70;50.90;;;;;;5072997;28;20037;-71
2021/04/03 12:36:29;;;;;;;4.07;1.42;;;18.70;47.00;;;;;;5088267;28;20036;-71
2021/04/03 12:38:55;;;;;;;7.13;1.23;;;17.60;48.80;;;;;;5072724;28;20111;-71
2021/04/03 12:41:21;;;;;;;5.03;1.67;;;15.80;51.40;;;;;;5071160;28;20170;-72
2021/04/03 12:43:47;;;;;;;8.00;1.70;;;15.50;53.30;;;;;;5088006;28;20032;-72
2021/04/03 12:46:13;;;;;;;4.93;1.00;;;14.50;54.00;;;;;;5072919;28;20115;-72
2021/04/03 12:48:39;;;;;;;4.18;1.02;;;16.20;51.00;;;;;;5072447;28;20032;-71
2021/04/03 12:51:06;;;;;;;4.47;1.10;;;17.00;47.20;;;;;;5072507;28;20366;-71
2021/04/03 12:53:32;;;;;;;2.72;0.90;;;16.90;48.80;;;;;;5072285;28;20047;-72
2021/04/03 12:55:59;;;;;;;4.20;1.00;;;19.00;46.80;;;;;;5072502;28;20025;-71
2021/04/03 12:58:25;;;;;;;6.53;1.27;;;18.40;47.00;;;;;;5071571;28;20035;-70
2021/04/03 13:00:51;;;;;;;4.93;1.40;;;17.30;49.20;;;;;;5072317;28;20025;-72
2021/04/03 13:03:18;;;;;;;4.65;1.27;;;17.20;47.60;;;;;;5087783;28;20036;-70